< < Back
Terminal Aerodrome Forecast


Current Version              Previous Versions:   1  2  3  4  5  6  7  8  9  

Terminal Aerodrome Forecast

229
FTUS44 KHUN 191008 AAA
TAFHSV
TAF AMD
KHSV 191008Z 1910/2006 02003KT 4SM BR BKN040
     FM191400 03004KT P6SM OVC030
     FM192000 03005KT P6SM VCSH OVC030
     FM200200 01005KT 5SM -RA BR OVC025=

Latest METAR

414
SAUS80 KWBC 191500 RRA
MTRHSV
METAR KHSV 191453Z 01005KT 8SM OVC038 04/M01 A3024 RMK AO2 SLP241
T00441006 51014


USA.gov is the U.S. government's official web portal to all federal, state and local government web resources and services.